Time;durP1;ratioP1;P1;durP2;ratioP2;P2;SDS_P1;SDS_P2;PMS_P1;PMS_P2;Temp;Humidity;BMP_temperature;BMP_pressure;BME280_temperature;BME280_humidity;BME280_pressure;Samples;Min_cycle;Max_cycle;Signal;HPM_P1;HPM_P2
2022/02/15 00:02:12;;;;;;;36.90;15.57;;;;;;;;;;4842352;29;20030;-84
2022/02/15 00:04:38;;;;;;;34.95;15.48;;;;;;;;;;4843748;29;20437;-84
2022/02/15 00:07:04;;;;;;;31.75;14.40;;;;;;;;;;4847958;29;20037;-81
2022/02/15 00:09:30;;;;;;;33.58;14.93;;;;;;;;;;4832947;29;20038;-81
2022/02/15 00:11:57;;;;;;;32.67;15.35;;;;;;;;;;4813155;29;20038;-81
2022/02/15 00:14:23;;;;;;;31.35;14.85;;;;;;;;;;4805712;29;20043;-83
2022/02/15 00:16:50;;;;;;;37.35;15.15;;;;;;;;;;4805613;29;20038;-82
2022/02/15 00:19:17;;;;;;;36.65;15.18;;;;;;;;;;4806012;29;20043;-83
2022/02/15 00:21:43;;;;;;;33.60;14.77;;;;;;;;;;4805468;29;20047;-82
2022/02/15 00:24:09;;;;;;;30.17;14.07;;;;;;;;;;4805426;29;20038;-82
2022/02/15 00:26:36;;;;;;;35.38;15.40;;;;;;;;;;4805569;29;20115;-84
2022/02/15 00:29:02;;;;;;;38.97;16.60;;;;;;;;;;4805418;29;20450;-84
2022/02/15 00:31:29;;;;;;;38.05;16.65;;;;;;;;;;4805428;29;20083;-84
2022/02/15 00:33:55;;;;;;;36.08;15.02;;;;;;;;;;4806846;29;20030;-82
2022/02/15 00:36:21;;;;;;;31.10;15.05;;;;;;;;;;4805300;29;20031;-81
2022/02/15 00:38:47;;;;;;;32.97;14.18;;;;;;;;;;4805118;29;20490;-81
2022/02/15 00:41:13;;;;;;;44.25;16.08;;;;;;;;;;4805510;29;20042;-83
2022/02/15 00:43:39;;;;;;;33.55;14.60;;;;;;;;;;4805439;29;20059;-81
2022/02/15 00:46:06;;;;;;;44.38;16.30;;;;;;;;;;4805547;29;20073;-82
2022/02/15 00:48:32;;;;;;;32.95;14.63;;;;;;;;;;4805176;29;20105;-81
2022/02/15 00:50:58;;;;;;;33.80;15.18;;;;;;;;;;4805142;29;20042;-84
2022/02/15 00:53:24;;;;;;;39.08;15.27;;;;;;;;;;4805302;29;20119;-83
2022/02/15 00:55:51;;;;;;;39.03;15.50;;;;;;;;;;4805223;29;20527;-81
2022/02/15 00:58:17;;;;;;;31.13;13.93;;;;;;;;;;4805327;29;20031;-81
2022/02/15 01:00:43;;;;;;;36.38;16.23;;;;;;;;;;4807125;29;20049;-82
2022/02/15 01:03:09;;;;;;;36.13;15.73;;;;;;;;;;4805205;29;20035;-84
2022/02/15 01:05:35;;;;;;;34.90;15.85;;;;;;;;;;4805206;29;20097;-84
2022/02/15 01:08:01;;;;;;;39.42;15.63;;;;;;;;;;4805277;29;20034;-82
2022/02/15 01:10:28;;;;;;;32.60;14.45;;;;;;;;;;4805491;29;20042;-84
2022/02/15 01:12:54;;;;;;;33.00;15.18;;;;;;;;;;4805558;29;20398;-84
2022/02/15 01:15:20;;;;;;;35.08;15.15;;;;;;;;;;4805293;29;20027;-83
2022/02/15 01:17:47;;;;;;;38.83;15.20;;;;;;;;;;4805081;29;20118;-84
2022/02/15 01:20:13;;;;;;;28.65;13.55;;;;;;;;;;4805086;29;20035;-84
2022/02/15 01:22:40;;;;;;;28.92;13.68;;;;;;;;;;4806760;29;20033;-84
2022/02/15 01:25:06;;;;;;;34.45;14.52;;;;;;;;;;4805349;29;20466;-83
2022/02/15 01:27:32;;;;;;;31.67;13.20;;;;;;;;;;4805305;29;20037;-84
2022/02/15 01:29:59;;;;;;;37.28;14.10;;;;;;;;;;4805414;29;20037;-84
2022/02/15 01:32:25;;;;;;;31.65;14.77;;;;;;;;;;4805177;29;20031;-84
2022/02/15 01:34:51;;;;;;;32.80;13.18;;;;;;;;;;4807778;29;20400;-83
2022/02/15 01:37:17;;;;;;;36.63;15.48;;;;;;;;;;4812477;29;20035;-81
2022/02/15 01:39:43;;;;;;;30.95;14.25;;;;;;;;;;4807416;29;20042;-84
2022/02/15 01:42:10;;;;;;;30.90;14.70;;;;;;;;;;4804867;29;20035;-84
2022/02/15 01:44:36;;;;;;;29.92;14.45;;;;;;;;;;4806120;29;20027;-83
2022/02/15 01:47:03;;;;;;;33.28;14.60;;;;;;;;;;4804895;29;20118;-83
2022/02/15 01:49:29;;;;;;;30.83;13.15;;;;;;;;;;4804635;29;20054;-84
2022/02/15 01:51:55;;;;;;;32.00;15.38;;;;;;;;;;4805996;29;20030;-84
2022/02/15 01:54:22;;;;;;;38.42;15.82;;;;;;;;;;4804816;29;20031;-84
2022/02/15 01:56:48;;;;;;;36.13;15.27;;;;;;;;;;4805728;29;20103;-81
2022/02/15 01:59:14;;;;;;;35.97;15.38;;;;;;;;;;4804552;29;20080;-81
2022/02/15 02:01:41;;;;;;;29.65;14.00;;;;;;;;;;4804615;29;20080;-83
2022/02/15 02:05:47;;;;;;;32.10;14.30;;;;;;;;;;4805742;29;20031;-83
2022/02/15 02:06:53;;;;;;;35.10;14.43;;;;;;;;;;4805926;29;20447;-83
2022/02/15 02:09:19;;;;;;;33.80;15.80;;;;;;;;;;4804717;29;20436;-81
2022/02/15 02:11:45;;;;;;;35.88;15.63;;;;;;;;;;4804244;29;20488;-83
2022/02/15 02:14:12;;;;;;;40.15;17.58;;;;;;;;;;4804431;29;20042;-83
2022/02/15 02:16:38;;;;;;;38.67;16.75;;;;;;;;;;4805746;29;20023;-83
2022/02/15 02:19:04;;;;;;;41.10;18.40;;;;;;;;;;4807741;29;20033;-83
2022/02/15 02:21:37;;;;;;;40.72;18.23;;;;;;;;;;4807524;29;20053;-83
2022/02/15 02:24:04;;;;;;;44.55;19.45;;;;;;;;;;4807697;29;20038;-83
2022/02/15 02:26:31;;;;;;;46.70;19.48;;;;;;;;;;4807834;29;20038;-83
2022/02/15 02:28:57;;;;;;;43.83;18.95;;;;;;;;;;4808863;29;20041;-84
2022/02/15 02:31:24;;;;;;;48.65;20.15;;;;;;;;;;4807635;29;20173;-83
2022/02/15 02:33:51;;;;;;;54.75;20.90;;;;;;;;;;4807399;29;20038;-83
2022/02/15 02:36:17;;;;;;;62.85;26.85;;;;;;;;;;4807365;29;20080;-83
2022/02/15 02:38:43;;;;;;;57.10;23.02;;;;;;;;;;4807440;29;20030;-83
2022/02/15 02:41:10;;;;;;;48.92;21.55;;;;;;;;;;4807299;29;20043;-83
2022/02/15 02:43:36;;;;;;;50.47;21.38;;;;;;;;;;4807316;29;20549;-83
2022/02/15 02:46:02;;;;;;;42.83;18.10;;;;;;;;;;4807219;29;20084;-83
2022/02/15 02:48:28;;;;;;;41.65;18.02;;;;;;;;;;4808200;29;20065;-82
2022/02/15 02:50:55;;;;;;;50.47;21.52;;;;;;;;;;4807158;29;20059;-84
2022/02/15 02:53:21;;;;;;;56.38;21.30;;;;;;;;;;4806934;29;20400;-84
2022/02/15 02:55:47;;;;;;;47.38;20.08;;;;;;;;;;4808240;29;20080;-81
2022/02/15 02:58:13;;;;;;;39.90;17.52;;;;;;;;;;4806868;29;20445;-84
2022/02/15 03:00:40;;;;;;;44.47;18.90;;;;;;;;;;4808159;29;20042;-81
2022/02/15 03:03:07;;;;;;;38.10;17.25;;;;;;;;;;4806942;29;20176;-84
2022/02/15 03:05:37;;;;;;;39.78;16.40;;;;;;;;;;4807002;29;20484;-83
2022/02/15 03:08:03;;;;;;;36.10;17.02;;;;;;;;;;4806809;29;20043;-84
2022/02/15 03:10:29;;;;;;;33.38;16.42;;;;;;;;;;4807728;29;20031;-84
2022/02/15 03:12:55;;;;;;;42.83;17.30;;;;;;;;;;4807938;29;20389;-81
2022/02/15 03:15:21;;;;;;;37.28;17.50;;;;;;;;;;4806691;29;20042;-82
2022/02/15 03:17:47;;;;;;;36.53;16.02;;;;;;;;;;4806705;29;20031;-82
2022/02/15 03:20:13;;;;;;;32.60;15.63;;;;;;;;;;4806648;29;20066;-81
2022/02/15 03:22:40;;;;;;;40.50;15.77;;;;;;;;;;4807866;29;20160;-80
2022/02/15 03:25:06;;;;;;;41.05;17.80;;;;;;;;;;4807543;29;20027;-81
2022/02/15 03:27:32;;;;;;;40.17;16.83;;;;;;;;;;4806503;29;20039;-83
2022/02/15 03:29:59;;;;;;;31.85;15.32;;;;;;;;;;4806798;29;20065;-80
2022/02/15 03:32:25;;;;;;;35.55;16.00;;;;;;;;;;4807622;29;20031;-82
2022/02/15 03:34:51;;;;;;;32.45;15.27;;;;;;;;;;4806382;29;20079;-81
2022/02/15 03:37:17;;;;;;;40.25;16.52;;;;;;;;;;4806496;29;20074;-83
2022/02/15 03:39:43;;;;;;;38.63;15.75;;;;;;;;;;4806050;29;20035;-84
2022/02/15 03:44:54;;;;;;;37.92;15.40;;;;;;;;;;4807638;29;20041;-81
2022/02/15 03:47:21;;;;;;;35.28;15.35;;;;;;;;;;4806258;29;20046;-80
2022/02/15 03:49:47;;;;;;;36.28;15.18;;;;;;;;;;4806131;29;20082;-81
2022/02/15 03:52:13;;;;;;;31.77;14.73;;;;;;;;;;4807545;29;20031;-83
2022/02/15 03:54:39;;;;;;;36.95;15.43;;;;;;;;;;4806512;29;20038;-81
2022/02/15 03:57:05;;;;;;;33.60;15.10;;;;;;;;;;4807175;29;20038;-83
2022/02/15 03:59:31;;;;;;;38.45;15.40;;;;;;;;;;4807373;29;20042;-83
2022/02/15 04:01:57;;;;;;;35.10;14.85;;;;;;;;;;4807022;29;20039;-83
2022/02/15 04:04:24;;;;;;;36.00;16.92;;;;;;;;;;4806977;29;20110;-83
2022/02/15 04:06:51;;;;;;;38.10;16.58;;;;;;;;;;4805810;29;20412;-82
2022/02/15 04:09:17;;;;;;;36.65;16.50;;;;;;;;;;4805819;29;20452;-83
2022/02/15 04:11:43;;;;;;;37.80;17.00;;;;;;;;;;4807119;29;20061;-83
2022/02/15 04:14:10;;;;;;;44.47;17.33;;;;;;;;;;4807069;29;20500;-81
2022/02/15 04:16:37;;;;;;;47.30;18.70;;;;;;;;;;4805789;29;20031;-83
2022/02/15 04:19:03;;;;;;;38.67;16.85;;;;;;;;;;4805793;29;20069;-83
2022/02/15 04:21:30;;;;;;;43.80;18.75;;;;;;;;;;4805618;29;20098;-82
2022/02/15 04:23:56;;;;;;;44.47;17.65;;;;;;;;;;4805690;29;20058;-82
2022/02/15 04:26:22;;;;;;;38.60;17.05;;;;;;;;;;4806580;29;20442;-83
2022/02/15 04:28:48;;;;;;;39.50;17.27;;;;;;;;;;4806726;29;20035;-82
2022/02/15 04:31:14;;;;;;;36.38;16.88;;;;;;;;;;4806776;29;20096;-82
2022/02/15 04:33:41;;;;;;;37.25;16.13;;;;;;;;;;4805656;29;20034;-82
2022/02/15 04:36:07;;;;;;;38.58;17.88;;;;;;;;;;4806630;29;20034;-84
2022/02/15 04:38:34;;;;;;;43.97;18.92;;;;;;;;;;4805371;29;20042;-80
2022/02/15 04:41:00;;;;;;;52.65;23.70;;;;;;;;;;4806315;29;20038;-80
2022/02/15 04:43:27;;;;;;;51.38;22.50;;;;;;;;;;4805252;29;20117;-84
2022/02/15 04:45:53;;;;;;;43.47;19.77;;;;;;;;;;4805314;29;20046;-80
2022/02/15 04:48:19;;;;;;;41.05;19.63;;;;;;;;;;4805116;29;20065;-86
2022/02/15 04:50:45;;;;;;;49.55;19.20;;;;;;;;;;4805439;29;20038;-82
2022/02/15 04:53:11;;;;;;;39.72;18.58;;;;;;;;;;4806970;29;20031;-82
2022/02/15 04:55:37;;;;;;;49.03;17.42;;;;;;;;;;4805588;29;20125;-82
2022/02/15 04:58:03;;;;;;;39.65;17.58;;;;;;;;;;4807058;29;20397;-82
2022/02/15 05:00:29;;;;;;;32.08;15.18;;;;;;;;;;4805149;29;20125;-83
2022/02/15 05:02:56;;;;;;;34.92;15.23;;;;;;;;;;4805611;29;20107;-89
2022/02/15 05:05:22;;;;;;;37.25;15.18;;;;;;;;;;4805903;29;20488;-88
2022/02/15 05:07:48;;;;;;;32.13;15.73;;;;;;;;;;4805612;29;20041;-83
2022/02/15 05:10:14;;;;;;;34.53;16.63;;;;;;;;;;4805287;29;20072;-83
2022/02/15 05:12:40;;;;;;;43.42;17.92;;;;;;;;;;4805467;29;20034;-83
2022/02/15 05:15:10;;;;;;;42.17;17.73;;;;;;;;;;4804717;29;20037;-83
2022/02/15 05:17:46;;;;;;;43.90;16.80;;;;;;;;;;4804724;29;20087;-82
2022/02/15 05:20:14;;;;;;;37.00;16.52;;;;;;;;;;4812890;29;20023;-82
2022/02/15 05:22:40;;;;;;;44.55;16.92;;;;;;;;;;4841410;29;20121;-82
2022/02/15 05:25:09;;;;;;;41.38;18.15;;;;;;;;;;4842609;29;20037;-83
2022/02/15 05:27:35;;;;;;;48.60;19.92;;;;;;;;;;4841116;29;20036;-81
2022/02/15 05:30:01;;;;;;;46.13;19.15;;;;;;;;;;4831514;29;20038;-83
2022/02/15 05:32:28;;;;;;;55.58;23.65;;;;;;;;;;4831721;29;20109;-82
2022/02/15 05:34:54;;;;;;;60.42;22.15;;;;;;;;;;4830324;29;20051;-81
2022/02/15 05:37:20;;;;;;;56.90;24.52;;;;;;;;;;4827779;29;20046;-83
2022/02/15 05:39:47;;;;;;;65.10;27.20;;;;;;;;;;4823249;29;20027;-83
2022/02/15 05:42:13;;;;;;;75.90;29.20;;;;;;;;;;4823467;29;20046;-87
2022/02/15 05:44:39;;;;;;;73.53;31.42;;;;;;;;;;4824484;29;20113;-82
2022/02/15 05:47:05;;;;;;;69.72;27.90;;;;;;;;;;4823951;29;20614;-79
2022/02/15 05:49:31;;;;;;;58.15;24.55;;;;;;;;;;4826894;29;20082;-88
2022/02/15 05:51:57;;;;;;;57.78;25.00;;;;;;;;;;4834007;29;20388;-83
2022/02/15 05:54:23;;;;;;;89.18;31.33;;;;;;;;;;4844910;29;20037;-83
2022/02/15 05:56:49;;;;;;;69.03;26.23;;;;;;;;;;4845134;29;20519;-82
2022/02/15 05:59:16;;;;;;;58.10;23.90;;;;;;;;;;4839810;29;20037;-82
2022/02/15 06:01:43;;;;;;;63.08;24.25;;;;;;;;;;4834666;29;20044;-82
2022/02/15 06:04:12;;;;;;;54.92;24.45;;;;;;;;;;4843517;29;20051;-87
2022/02/15 06:06:42;;;;;;;63.50;26.92;;;;;;;;;;4843035;29;20035;-83
2022/02/15 06:09:08;;;;;;;57.53;25.80;;;;;;;;;;4827911;29;20400;-84
2022/02/15 06:11:46;;;;;;;60.10;26.02;;;;;;;;;;4830128;29;20031;-95
2022/02/15 06:14:12;;;;;;;74.65;27.50;;;;;;;;;;4823683;29;20038;-84
2022/02/15 06:16:38;;;;;;;66.70;27.38;;;;;;;;;;4826288;29;20034;-81
2022/02/15 06:19:05;;;;;;;64.60;28.77;;;;;;;;;;4826594;29;20030;-89
2022/02/15 06:21:31;;;;;;;65.10;26.80;;;;;;;;;;4831878;29;20042;-81
2022/02/15 06:23:58;;;;;;;68.80;27.05;;;;;;;;;;4840192;29;20037;-83
2022/02/15 06:26:24;;;;;;;56.17;25.70;;;;;;;;;;4832388;29;20030;-86
2022/02/15 06:28:50;;;;;;;63.78;25.63;;;;;;;;;;4827157;29;20031;-82
2022/02/15 06:31:17;;;;;;;59.38;26.48;;;;;;;;;;4826513;29;20423;-83
2022/02/15 06:33:43;;;;;;;60.72;26.02;;;;;;;;;;4828378;29;20102;-88
2022/02/15 06:36:09;;;;;;;59.92;27.02;;;;;;;;;;4826751;29;20065;-89
2022/02/15 06:38:36;;;;;;;61.30;27.55;;;;;;;;;;4827221;29;20058;-84
2022/02/15 06:41:02;;;;;;;60.72;27.38;;;;;;;;;;4826155;29;20046;-83
2022/02/15 06:43:28;;;;;;;66.03;25.35;;;;;;;;;;4827519;29;20038;-88
2022/02/15 06:45:54;;;;;;;59.03;26.08;;;;;;;;;;4825935;29;20031;-87
2022/02/15 06:48:21;;;;;;;57.75;25.38;;;;;;;;;;4825503;29;20141;-85
2022/02/15 06:50:47;;;;;;;50.15;22.80;;;;;;;;;;4826520;29;20485;-82
2022/02/15 06:53:13;;;;;;;51.67;22.08;;;;;;;;;;4825306;29;20052;-83
2022/02/15 06:55:39;;;;;;;50.05;24.13;;;;;;;;;;4826581;29;20034;-84
2022/02/15 06:58:05;;;;;;;53.75;24.55;;;;;;;;;;4826056;29;20066;-85
2022/02/15 07:00:31;;;;;;;50.92;23.88;;;;;;;;;;4825698;29;20041;-84
2022/02/15 07:02:57;;;;;;;50.40;24.50;;;;;;;;;;4825396;29;20508;-87
2022/02/15 07:05:24;;;;;;;51.00;25.30;;;;;;;;;;4825238;29;20035;-84
2022/02/15 07:07:50;;;;;;;42.28;21.42;;;;;;;;;;4825671;29;20053;-86
2022/02/15 07:10:16;;;;;;;45.47;23.98;;;;;;;;;;4826642;29;20472;-84
2022/02/15 07:12:42;;;;;;;48.65;25.45;;;;;;;;;;4825935;29;20437;-84
2022/02/15 07:15:11;;;;;;;50.83;24.92;;;;;;;;;;4825524;29;20046;-84
2022/02/15 07:17:41;;;;;;;44.70;25.10;;;;;;;;;;4825869;29;20429;-83
2022/02/15 07:20:08;;;;;;;46.60;25.85;;;;;;;;;;4825541;29;20381;-83
2022/02/15 07:22:34;;;;;;;48.88;24.73;;;;;;;;;;4827036;29;20038;-83
2022/02/15 07:25:01;;;;;;;48.95;25.10;;;;;;;;;;4828147;29;20166;-84
2022/02/15 07:27:27;;;;;;;47.83;25.48;;;;;;;;;;4828563;29;20094;-84
2022/02/15 07:29:55;;;;;;;43.88;24.75;;;;;;;;;;4829251;29;20035;-83
2022/02/15 07:32:24;;;;;;;44.42;23.83;;;;;;;;;;4827635;29;20396;-83
2022/02/15 07:34:51;;;;;;;46.65;23.92;;;;;;;;;;4826259;29;20039;-83
2022/02/15 07:37:17;;;;;;;50.17;25.05;;;;;;;;;;4825101;29;20039;-82
2022/02/15 07:39:44;;;;;;;45.92;23.02;;;;;;;;;;4825888;29;20027;-83
2022/02/15 07:42:10;;;;;;;40.40;20.15;;;;;;;;;;4825863;29;20030;-83
2022/02/15 07:44:36;;;;;;;38.05;18.77;;;;;;;;;;4825865;29;20039;-81
2022/02/15 07:47:02;;;;;;;40.38;18.40;;;;;;;;;;4825789;29;20083;-82
2022/02/15 07:49:31;;;;;;;35.10;19.38;;;;;;;;;;4824271;29;20424;-84
2022/02/15 07:51:57;;;;;;;36.92;18.23;;;;;;;;;;4825938;29;20027;-84
2022/02/15 07:54:24;;;;;;;36.28;18.00;;;;;;;;;;4824873;29;20038;-84
2022/02/15 07:56:51;;;;;;;37.08;17.60;;;;;;;;;;4825614;29;20057;-84
2022/02/15 07:59:17;;;;;;;34.15;15.57;;;;;;;;;;4824344;29;20034;-85
2022/02/15 08:01:43;;;;;;;38.05;17.15;;;;;;;;;;4824624;29;20492;-83
2022/02/15 08:04:13;;;;;;;37.05;16.45;;;;;;;;;;4824113;29;20069;-84
2022/02/15 08:06:40;;;;;;;33.30;16.48;;;;;;;;;;4824433;29;20034;-89
2022/02/15 08:09:06;;;;;;;35.65;15.50;;;;;;;;;;4824871;29;20030;-87
2022/02/15 08:11:40;;;;;;;28.45;13.80;;;;;;;;;;4824861;29;20037;-84
2022/02/15 08:14:06;;;;;;;33.60;15.60;;;;;;;;;;4824844;29;20026;-84
2022/02/15 08:16:32;;;;;;;31.33;15.25;;;;;;;;;;4824369;29;20038;-86
2022/02/15 08:18:59;;;;;;;33.00;14.85;;;;;;;;;;4824110;29;20030;-85
2022/02/15 08:21:25;;;;;;;28.23;14.15;;;;;;;;;;4824547;29;20046;-85
2022/02/15 08:23:51;;;;;;;28.25;14.95;;;;;;;;;;4824283;29;20467;-85
2022/02/15 08:26:19;;;;;;;29.23;14.00;;;;;;;;;;4824155;29;20037;-85
2022/02/15 08:28:46;;;;;;;27.58;13.43;;;;;;;;;;4824101;29;20396;-85
2022/02/15 08:31:12;;;;;;;25.15;12.85;;;;;;;;;;4824587;29;20065;-86
2022/02/15 08:33:38;;;;;;;27.33;12.60;;;;;;;;;;4824959;29;20038;-86
2022/02/15 08:36:05;;;;;;;24.98;12.18;;;;;;;;;;4823997;29;20125;-85
2022/02/15 08:38:33;;;;;;;24.85;10.30;;;;;;;;;;4824447;29;20031;-88
2022/02/15 08:41:02;;;;;;;21.55;9.02;;;;;;;;;;4824418;29;20070;-87
2022/02/15 08:43:29;;;;;;;27.92;11.70;;;;;;;;;;4825305;29;20032;-86
2022/02/15 08:45:55;;;;;;;33.40;10.25;;;;;;;;;;4824556;29;20073;-85
2022/02/15 08:48:21;;;;;;;16.58;7.95;;;;;;;;;;4824611;29;20057;-89
2022/02/15 08:50:48;;;;;;;23.77;8.93;;;;;;;;;;4825787;29;20046;-85
2022/02/15 08:53:14;;;;;;;24.42;9.80;;;;;;;;;;4824252;29;20026;-85
2022/02/15 08:55:40;;;;;;;16.02;8.82;;;;;;;;;;4823916;29;20030;-86
2022/02/15 08:58:06;;;;;;;27.00;9.73;;;;;;;;;;4823901;29;20133;-83
2022/02/15 09:00:48;;;;;;;20.02;9.18;;;;;;;;;;4824181;29;20086;-84
2022/02/15 09:03:14;;;;;;;17.02;8.18;;;;;;;;;;4824769;29;20038;-85
2022/02/15 09:05:41;;;;;;;19.05;8.60;;;;;;;;;;4824088;29;20057;-83
2022/02/15 09:08:07;;;;;;;20.30;8.48;;;;;;;;;;4824245;29;20063;-89
2022/02/15 09:10:37;;;;;;;18.50;8.82;;;;;;;;;;4824068;29;20034;-89
2022/02/15 09:13:03;;;;;;;25.70;8.90;;;;;;;;;;4824211;29;20082;-86
2022/02/15 09:15:30;;;;;;;12.57;6.63;;;;;;;;;;4825396;29;20027;-87
2022/02/15 09:17:56;;;;;;;15.95;7.25;;;;;;;;;;4823698;29;20109;-83
2022/02/15 09:20:23;;;;;;;14.68;7.45;;;;;;;;;;4823748;29;20117;-86
2022/02/15 09:22:49;;;;;;;19.77;8.10;;;;;;;;;;4823888;29;20099;-84
2022/02/15 09:25:16;;;;;;;25.75;10.95;;;;;;;;;;4823266;29;20030;-83
2022/02/15 09:27:43;;;;;;;19.63;9.30;;;;;;;;;;4826035;29;20109;-83
2022/02/15 09:30:09;;;;;;;23.98;14.30;;;;;;;;;;4826803;29;20113;-82
2022/02/15 09:32:36;;;;;;;20.65;10.35;;;;;;;;;;4835727;29;20400;-85
2022/02/15 09:35:27;;;;;;;23.67;10.38;;;;;;;;;;4837433;29;20053;-83
2022/02/15 09:37:53;;;;;;;21.05;9.90;;;;;;;;;;4839254;29;20042;-88
2022/02/15 09:40:19;;;;;;;30.27;20.20;;;;;;;;;;4835663;29;20034;-84
2022/02/15 09:42:45;;;;;;;19.98;9.60;;;;;;;;;;4832116;29;20108;-87
2022/02/15 09:45:13;;;;;;;16.27;8.75;;;;;;;;;;4827080;29;20085;-85
2022/02/15 09:47:42;;;;;;;16.50;8.63;;;;;;;;;;4830370;29;20042;-88
2022/02/15 09:50:25;;;;;;;21.88;13.63;;;;;;;;;;4828057;29;20034;-88
2022/02/15 09:52:51;;;;;;;18.85;8.77;;;;;;;;;;4836331;29;20488;-86
2022/02/15 09:55:18;;;;;;;17.65;9.00;;;;;;;;;;4839286;29;20091;-86
2022/02/15 09:57:44;;;;;;;18.33;9.90;;;;;;;;;;4827261;29;20124;-82
2022/02/15 10:00:10;;;;;;;22.02;9.32;;;;;;;;;;4833537;29;20034;-88
2022/02/15 10:02:37;;;;;;;17.63;9.07;;;;;;;;;;4845563;29;20046;-82
2022/02/15 10:05:03;;;;;;;19.10;10.38;;;;;;;;;;4844815;29;20093;-81
2022/02/15 10:07:29;;;;;;;19.95;10.23;;;;;;;;;;4845380;29;20041;-86
2022/02/15 10:09:59;;;;;;;17.65;9.13;;;;;;;;;;4844945;29;20030;-85
2022/02/15 10:12:26;;;;;;;17.27;9.82;;;;;;;;;;4844819;29;20034;-85
2022/02/15 10:14:52;;;;;;;22.10;9.35;;;;;;;;;;4846726;29;20022;-87
2022/02/15 10:17:19;;;;;;;20.35;9.00;;;;;;;;;;4845594;29;20038;-86
2022/02/15 10:19:50;;;;;;;16.27;9.48;;;;;;;;;;4835329;29;20022;-82
2022/02/15 10:22:20;;;;;;;16.80;9.45;;;;;;;;;;4827471;29;20046;-83
2022/02/15 10:24:51;;;;;;;18.63;8.45;;;;;;;;;;4827839;29;20033;-86
2022/02/15 10:27:17;;;;;;;16.08;8.18;;;;;;;;;;4827988;29;20484;-85
2022/02/15 10:29:46;;;;;;;17.17;7.80;;;;;;;;;;4826429;29;20031;-85
2022/02/15 10:32:13;;;;;;;20.50;9.38;;;;;;;;;;4827000;29;20133;-86
2022/02/15 10:34:46;;;;;;;22.45;9.88;;;;;;;;;;4826599;29;20091;-86
2022/02/15 10:37:14;;;;;;;10.68;6.03;;;;;;;;;;4826055;29;20030;-82
2022/02/15 10:39:45;;;;;;;15.35;7.72;;;;;;;;;;4825615;29;20090;-87
2022/02/15 10:42:15;;;;;;;16.52;8.73;;;;;;;;;;4826269;29;20073;-87
2022/02/15 10:44:50;;;;;;;14.75;8.18;;;;;;;;;;4825746;29;20495;-83
2022/02/15 10:47:16;;;;;;;12.57;7.22;;;;;;;;;;4825588;29;20034;-81
2022/02/15 10:49:43;;;;;;;15.32;7.28;;;;;;;;;;4826736;29;20046;-86
2022/02/15 10:52:10;;;;;;;17.35;7.47;;;;;;;;;;4826960;29;20069;-83
2022/02/15 10:54:36;;;;;;;13.85;7.40;;;;;;;;;;4825826;29;20079;-84
2022/02/15 10:57:03;;;;;;;12.43;6.75;;;;;;;;;;4825436;29;20503;-83
2022/02/15 10:59:33;;;;;;;12.75;6.07;;;;;;;;;;4825222;29;20039;-82
2022/02/15 11:02:00;;;;;;;14.40;8.00;;;;;;;;;;4825238;29;20411;-80
2022/02/15 11:04:28;;;;;;;20.23;9.07;;;;;;;;;;4825434;29;20034;-85
2022/02/15 11:06:54;;;;;;;14.80;6.93;;;;;;;;;;4825265;29;20051;-83
2022/02/15 11:09:24;;;;;;;14.55;7.15;;;;;;;;;;4826803;29;20049;-84
2022/02/15 11:12:20;;;;;;;17.15;8.73;;;;;;;;;;4826600;29;20507;-82
2022/02/15 11:14:49;;;;;;;13.85;7.10;;;;;;;;;;4814247;29;20034;-82
2022/02/15 11:17:16;;;;;;;14.00;7.88;;;;;;;;;;4825045;29;20423;-82
2022/02/15 11:19:42;;;;;;;15.45;7.00;;;;;;;;;;4825618;29;20023;-82
2022/02/15 11:22:20;;;;;;;13.90;7.10;;;;;;;;;;4825611;29;20046;-85
2022/02/15 11:24:46;;;;;;;15.80;7.43;;;;;;;;;;4825456;29;20042;-83
2022/02/15 11:27:14;;;;;;;18.98;8.10;;;;;;;;;;4826367;29;20082;-81
2022/02/15 11:29:49;;;;;;;17.90;8.85;;;;;;;;;;4829559;29;20034;-81
2022/02/15 11:32:33;;;;;;;16.90;7.32;;;;;;;;;;4825229;29;20038;-82
2022/02/15 11:35:09;;;;;;;17.73;8.90;;;;;;;;;;4826191;29;20066;-82
2022/02/15 11:37:35;;;;;;;14.98;7.57;;;;;;;;;;4825604;29;20031;-87
2022/02/15 11:40:06;;;;;;;11.70;6.18;;;;;;;;;;4825446;29;20476;-84
2022/02/15 11:42:45;;;;;;;15.35;7.97;;;;;;;;;;4826186;29;20039;-85
2022/02/15 11:45:26;;;;;;;10.73;5.97;;;;;;;;;;4824997;29;20069;-83
2022/02/15 11:47:53;;;;;;;12.88;6.43;;;;;;;;;;4824636;29;20129;-80
2022/02/15 11:50:19;;;;;;;10.98;5.60;;;;;;;;;;4823827;29;20400;-80
2022/02/15 11:52:46;;;;;;;12.48;6.80;;;;;;;;;;4824998;29;20022;-87
2022/02/15 11:55:15;;;;;;;16.77;6.68;;;;;;;;;;4824987;29;20034;-83
2022/02/15 11:57:42;;;;;;;14.90;5.70;;;;;;;;;;4824966;29;20400;-83
2022/02/15 12:00:10;;;;;;;13.40;7.55;;;;;;;;;;4825962;29;20026;-88
2022/02/15 12:02:36;;;;;;;16.20;7.45;;;;;;;;;;4824635;29;20492;-86
2022/02/15 12:05:04;;;;;;;11.57;6.53;;;;;;;;;;4824537;29;20034;-83
2022/02/15 12:07:31;;;;;;;16.13;6.35;;;;;;;;;;4824539;29;20121;-81
2022/02/15 12:09:59;;;;;;;10.52;5.25;;;;;;;;;;4823975;29;20535;-83
2022/02/15 12:12:44;;;;;;;15.57;8.30;;;;;;;;;;4824030;29;20035;-82
2022/02/15 12:15:10;;;;;;;12.52;6.15;;;;;;;;;;4824162;29;20022;-86
2022/02/15 12:17:46;;;;;;;11.32;5.95;;;;;;;;;;4824346;29;20038;-83
2022/02/15 12:20:13;;;;;;;11.05;5.55;;;;;;;;;;4824210;29;20392;-86
2022/02/15 12:22:43;;;;;;;11.60;5.35;;;;;;;;;;4824224;29;20122;-82
2022/02/15 12:25:10;;;;;;;13.68;7.28;;;;;;;;;;4824209;29;20041;-84
2022/02/15 12:27:40;;;;;;;11.73;6.03;;;;;;;;;;4823682;29;20370;-83
2022/02/15 12:30:07;;;;;;;10.38;5.72;;;;;;;;;;4824589;29;20060;-83
2022/02/15 12:32:33;;;;;;;11.38;6.20;;;;;;;;;;4825088;29;20034;-80
2022/02/15 12:34:59;;;;;;;12.50;5.95;;;;;;;;;;4823700;29;20023;-84
2022/02/15 12:37:27;;;;;;;11.52;5.30;;;;;;;;;;4823871;29;20373;-81
2022/02/15 12:39:58;;;;;;;11.38;5.20;;;;;;;;;;4824959;29;20034;-82
2022/02/15 12:42:26;;;;;;;15.63;5.78;;;;;;;;;;4823643;29;20175;-81
2022/02/15 12:44:57;;;;;;;13.60;6.05;;;;;;;;;;4824704;29;20026;-82
2022/02/15 12:47:23;;;;;;;14.27;5.28;;;;;;;;;;4823774;29;20041;-81
2022/02/15 12:49:51;;;;;;;10.95;5.38;;;;;;;;;;4824373;29;20058;-81
2022/02/15 12:52:17;;;;;;;11.85;5.70;;;;;;;;;;4825070;29;20075;-84
2022/02/15 12:54:54;;;;;;;13.75;5.80;;;;;;;;;;4823579;29;20042;-83
2022/02/15 12:57:21;;;;;;;11.25;5.85;;;;;;;;;;4824098;29;20061;-81
2022/02/15 12:59:51;;;;;;;11.65;5.43;;;;;;;;;;4823620;29;20536;-82
2022/02/15 13:02:17;;;;;;;15.02;6.18;;;;;;;;;;4822942;29;20042;-82
2022/02/15 13:04:48;;;;;;;13.77;6.50;;;;;;;;;;4824864;29;20133;-81
2022/02/15 13:07:15;;;;;;;11.32;6.13;;;;;;;;;;4823372;29;20038;-81
2022/02/15 13:09:47;;;;;;;13.88;6.28;;;;;;;;;;4823705;29;20099;-81
2022/02/15 13:12:17;;;;;;;18.92;7.10;;;;;;;;;;4822861;29;20102;-90
2022/02/15 13:14:48;;;;;;;13.48;6.30;;;;;;;;;;4822556;29;20034;-80
2022/02/15 13:17:15;;;;;;;15.77;6.25;;;;;;;;;;4822929;29;20042;-81
2022/02/15 13:19:41;;;;;;;13.50;6.95;;;;;;;;;;4822985;29;20062;-84
2022/02/15 13:22:09;;;;;;;12.60;5.97;;;;;;;;;;4823348;29;20452;-83
2022/02/15 13:24:35;;;;;;;12.85;6.43;;;;;;;;;;4824401;29;20376;-82
2022/02/15 13:27:01;;;;;;;12.32;5.75;;;;;;;;;;4823387;29;20034;-82
2022/02/15 13:29:28;;;;;;;15.10;6.75;;;;;;;;;;4822977;29;20031;-82
2022/02/15 13:31:56;;;;;;;11.43;6.53;;;;;;;;;;4823307;29;20072;-83
2022/02/15 13:34:26;;;;;;;14.30;6.30;;;;;;;;;;4823169;29;20031;-82
2022/02/15 13:36:57;;;;;;;10.25;5.65;;;;;;;;;;4824200;29;20034;-83
2022/02/15 13:39:23;;;;;;;10.23;5.68;;;;;;;;;;4823250;29;20126;-83
2022/02/15 13:41:51;;;;;;;9.88;5.53;;;;;;;;;;4823421;29;20048;-82
2022/02/15 13:44:17;;;;;;;15.52;5.00;;;;;;;;;;4824615;29;20022;-81
2022/02/15 13:46:44;;;;;;;13.60;6.50;;;;;;;;;;4823157;29;20038;-81
2022/02/15 13:49:10;;;;;;;12.77;6.53;;;;;;;;;;4822842;29;20125;-81
2022/02/15 13:51:37;;;;;;;14.50;6.75;;;;;;;;;;4823112;29;20039;-81
2022/02/15 13:54:05;;;;;;;15.95;8.60;;;;;;;;;;4824421;29;20046;-81
2022/02/15 13:56:32;;;;;;;15.60;7.82;;;;;;;;;;4823200;29;20396;-81
2022/02/15 13:58:58;;;;;;;17.88;8.57;;;;;;;;;;4822746;29;20478;-81
2022/02/15 14:01:25;;;;;;;17.45;7.40;;;;;;;;;;4824029;29;20504;-81
2022/02/15 14:03:51;;;;;;;15.15;7.97;;;;;;;;;;4824074;29;20041;-80
2022/02/15 14:06:18;;;;;;;14.57;7.72;;;;;;;;;;4824211;29;20027;-83
2022/02/15 14:08:45;;;;;;;14.73;8.32;;;;;;;;;;4822443;29;20145;-82
2022/02/15 14:11:11;;;;;;;14.98;7.97;;;;;;;;;;4824092;29;20026;-81
2022/02/15 14:13:37;;;;;;;17.38;8.95;;;;;;;;;;4824228;29;20038;-84
2022/02/15 14:16:03;;;;;;;17.42;9.40;;;;;;;;;;4826232;29;20555;-83
2022/02/15 14:18:29;;;;;;;16.17;8.93;;;;;;;;;;4825928;29;20053;-81
2022/02/15 14:20:55;;;;;;;16.20;8.45;;;;;;;;;;4827309;29;20035;-83
2022/02/15 14:23:22;;;;;;;16.13;8.57;;;;;;;;;;4825519;29;20514;-82
2022/02/15 14:25:48;;;;;;;19.13;7.70;;;;;;;;;;4826055;29;20075;-84